Time;durP1;ratioP1;P1;durP2;ratioP2;P2;SDS_P1;SDS_P2;PMS_P1;PMS_P2;Temp;Humidity;BMP_temperature;BMP_pressure;BME280_temperature;BME280_humidity;BME280_pressure;Samples;Min_cycle;Max_cycle;Signal;HPM_P1;HPM_P2
2023/04/03 00:00:31;;;;;;;4.67;4.37;;;8.00;95.40;;;;;;10424189;28;20226;-80
2023/04/03 00:05:33;;;;;;;4.70;4.33;;;8.00;95.90;;;;;;10453147;28;20187;-81
2023/04/03 00:10:37;;;;;;;4.53;4.13;;;8.00;96.30;;;;;;10418221;28;20662;-80
2023/04/03 00:15:39;;;;;;;4.93;4.63;;;8.00;96.00;;;;;;10423478;28;20209;-81
2023/04/03 00:20:42;;;;;;;5.30;4.80;;;8.00;95.40;;;;;;10452747;28;20220;-80
2023/04/03 00:25:45;;;;;;;4.63;4.33;;;8.00;96.00;;;;;;10422238;28;20565;-80
2023/04/03 00:30:49;;;;;;;4.53;4.10;;;8.00;95.50;;;;;;10455814;28;20219;-81
2023/04/03 00:35:51;;;;;;;5.07;4.70;;;8.10;94.60;;;;;;10424984;28;20713;-81
2023/04/03 00:40:55;;;;;;;4.53;4.23;;;8.10;94.60;;;;;;10454603;28;20256;-80
2023/04/03 00:45:58;;;;;;;5.00;4.70;;;8.10;93.90;;;;;;10423390;28;20189;-81
2023/04/03 00:51:01;;;;;;;4.70;4.40;;;8.00;94.40;;;;;;10423325;28;20301;-81
2023/04/03 00:56:10;;;;;;;4.40;4.10;;;8.00;94.30;;;;;;10465394;28;20732;-80
2023/04/03 01:01:16;;;;;;;4.53;4.23;;;7.90;95.40;;;;;;10435239;28;20308;-80
2023/04/03 01:06:24;;;;;;;4.67;4.37;;;7.90;93.80;;;;;;10435845;28;20565;-80
2023/04/03 01:11:27;;;;;;;6.50;4.70;;;7.90;95.50;;;;;;10426679;28;20209;-80
2023/04/03 01:16:31;;;;;;;4.70;4.30;;;8.00;94.60;;;;;;10460984;28;20251;-82
2023/04/03 01:21:57;;;;;;;5.00;4.50;;;7.90;94.70;;;;;;10458105;28;20243;-80
2023/04/03 01:27:03;;;;;;;5.20;4.80;;;7.90;95.80;;;;;;10445650;28;20221;-79
2023/04/03 01:32:07;;;;;;;4.60;4.30;;;7.90;95.70;;;;;;10409594;28;20221;-83
2023/04/03 01:37:09;;;;;;;7.77;4.60;;;7.90;94.90;;;;;;10431845;28;20308;-83
2023/04/03 01:42:12;;;;;;;4.67;4.33;;;7.90;95.70;;;;;;10456294;28;20228;-83
2023/04/03 01:47:19;;;;;;;4.73;4.33;;;7.90;96.40;;;;;;10429518;28;20219;-83
2023/04/03 01:52:21;;;;;;;4.37;3.97;;;7.80;95.10;;;;;;10440360;28;20664;-83
2023/04/03 01:57:23;;;;;;;5.50;4.77;;;7.90;94.30;;;;;;10427366;28;20217;-83
2023/04/03 02:02:26;;;;;;;4.73;4.43;;;7.80;95.10;;;;;;10438672;28;20248;-83
2023/04/03 02:07:29;;;;;;;4.90;4.47;;;7.80;95.00;;;;;;10462009;28;20267;-83
2023/04/03 02:12:31;;;;;;;4.40;4.10;;;7.80;94.30;;;;;;10462579;28;20726;-83
2023/04/03 02:17:36;;;;;;;5.03;4.53;;;7.80;95.20;;;;;;10426863;28;20240;-83
2023/04/03 02:22:38;;;;;;;4.60;4.30;;;7.80;93.60;;;;;;10429918;28;20275;-83
2023/04/03 02:27:40;;;;;;;4.50;4.20;;;7.80;94.20;;;;;;10448705;28;20220;-83
2023/04/03 02:32:44;;;;;;;4.50;4.20;;;7.80;95.40;;;;;;10433416;28;20225;-82
2023/04/03 02:37:46;;;;;;;4.60;4.20;;;7.80;93.40;;;;;;10438147;28;20643;-80
2023/04/03 02:42:49;;;;;;;5.00;4.60;;;7.80;94.60;;;;;;10421225;28;20585;-80
2023/04/03 02:47:53;;;;;;;5.30;4.90;;;7.80;94.30;;;;;;10455355;28;20216;-79
2023/04/03 02:52:55;;;;;;;4.90;4.50;;;7.80;94.00;;;;;;10439443;28;20260;-80
2023/04/03 02:57:57;;;;;;;4.83;4.50;;;7.80;93.60;;;;;;10457402;28;20219;-78
2023/04/03 03:03:01;;;;;;;4.57;4.27;;;7.80;94.70;;;;;;10422123;28;20229;-83
2023/04/03 03:08:03;;;;;;;4.53;4.33;;;7.80;94.00;;;;;;10440370;28;20198;-83
2023/04/03 03:13:05;;;;;;;4.90;4.50;;;7.80;94.30;;;;;;10453866;28;20210;-83
2023/04/03 03:18:09;;;;;;;5.10;4.70;;;7.80;93.00;;;;;;10412635;28;20213;-83
2023/04/03 03:23:11;;;;;;;5.20;4.80;;;7.70;94.70;;;;;;10421873;28;20293;-82
2023/04/03 03:28:16;;;;;;;5.10;4.80;;;7.70;94.20;;;;;;10457666;28;20226;-83
2023/04/03 03:33:20;;;;;;;4.73;4.33;;;7.80;92.00;;;;;;10462168;28;20265;-83
2023/04/03 03:38:23;;;;;;;5.00;4.70;;;7.70;93.00;;;;;;10425124;28;20218;-83
2023/04/03 03:43:25;;;;;;;5.20;4.83;;;7.70;92.40;;;;;;10455802;28;20218;-84
2023/04/03 03:48:30;;;;;;;4.50;4.30;;;7.70;94.10;;;;;;10427339;28;20192;-83
2023/04/03 03:53:32;;;;;;;4.83;4.43;;;7.80;93.80;;;;;;10414949;28;20280;-82
2023/04/03 03:58:39;;;;;;;5.33;4.80;;;7.80;92.60;;;;;;10441994;28;20221;-81
2023/04/03 04:03:44;;;;;;;4.90;4.40;;;7.70;94.70;;;;;;10403900;28;20226;-80
2023/04/03 04:08:49;;;;;;;6.97;6.27;;;7.70;93.60;;;;;;10425590;28;20201;-78
2023/04/03 04:13:51;;;;;;;11.53;9.43;;;7.80;93.50;;;;;;10442330;28;20239;-78
2023/04/03 04:18:58;;;;;;;5.37;4.97;;;7.80;93.70;;;;;;10418653;28;20213;-80
2023/04/03 04:24:00;;;;;;;4.23;3.83;;;7.80;92.10;;;;;;10400774;28;20752;-80
2023/04/03 04:29:03;;;;;;;4.97;4.57;;;7.80;93.20;;;;;;10400495;28;20203;-79
2023/04/03 04:34:10;;;;;;;5.07;4.57;;;7.80;92.60;;;;;;10354676;28;20217;-79
2023/04/03 04:39:13;;;;;;;4.73;4.33;;;7.80;93.40;;;;;;10380294;28;20223;-79
2023/04/03 04:44:16;;;;;;;5.40;4.40;;;7.90;93.20;;;;;;10400015;28;20258;-82
2023/04/03 04:49:20;;;;;;;4.50;4.10;;;7.90;93.30;;;;;;10461237;28;20679;-80
2023/04/03 04:54:22;;;;;;;4.33;3.93;;;7.90;92.10;;;;;;10465368;28;20227;-81
2023/04/03 04:59:26;;;;;;;5.20;4.80;;;7.90;92.90;;;;;;10420314;28;20222;-80
2023/04/03 05:04:33;;;;;;;5.10;4.03;;;7.90;92.80;;;;;;10414800;28;20635;-79
2023/04/03 05:09:42;;;;;;;4.60;4.30;;;7.90;93.00;;;;;;10397111;28;20750;-77
2023/04/03 05:14:45;;;;;;;4.03;3.77;;;7.90;93.60;;;;;;10415937;28;20284;-78
2023/04/03 05:19:48;;;;;;;6.20;4.37;;;8.00;93.20;;;;;;10468076;28;20214;-78
2023/04/03 05:24:52;;;;;;;4.40;4.10;;;8.00;92.20;;;;;;10411093;28;20285;-78
2023/04/03 05:29:56;;;;;;;4.20;3.90;;;8.00;91.50;;;;;;10410189;28;20564;-78
2023/04/03 05:35:00;;;;;;;5.50;4.20;;;8.00;91.00;;;;;;10445402;28;20194;-78
2023/04/03 05:40:04;;;;;;;4.00;3.70;;;8.00;91.60;;;;;;10451744;28;20233;-78
2023/04/03 05:45:07;;;;;;;5.40;4.23;;;8.00;90.00;;;;;;10414027;28;20729;-77
2023/04/03 05:50:11;;;;;;;6.30;4.40;;;7.90;90.40;;;;;;10416101;28;20225;-77
2023/04/03 05:55:14;;;;;;;4.77;4.20;;;7.80;91.20;;;;;;10459449;28;20198;-79
2023/04/03 06:00:17;;;;;;;4.37;4.07;;;7.80;89.60;;;;;;10421319;28;20704;-79
2023/04/03 06:05:27;;;;;;;4.47;4.10;;;7.80;91.30;;;;;;10422841;28;20222;-79
2023/04/03 06:10:30;;;;;;;4.50;4.10;;;7.80;88.90;;;;;;10432413;28;20221;-78
2023/04/03 06:15:33;;;;;;;4.30;3.90;;;7.70;90.80;;;;;;10437745;28;20271;-78
2023/04/03 06:20:37;;;;;;;5.23;4.13;;;7.80;90.60;;;;;;10432577;28;20790;-79
2023/04/03 06:25:39;;;;;;;4.20;3.90;;;7.80;91.40;;;;;;10416943;28;20201;-79
2023/04/03 06:30:41;;;;;;;6.63;3.63;;;7.90;86.80;;;;;;10445602;28;20219;-79
2023/04/03 06:35:45;;;;;;;4.00;3.60;;;7.90;88.70;;;;;;10455642;28;20553;-79
2023/04/03 06:40:47;;;;;;;6.50;4.13;;;7.90;91.00;;;;;;10423551;28;20225;-79
2023/04/03 06:45:49;;;;;;;4.10;3.70;;;8.00;90.90;;;;;;10418341;28;20197;-79
2023/04/03 06:50:54;;;;;;;3.90;3.60;;;8.10;89.00;;;;;;10456169;28;20246;-79
2023/04/03 06:55:56;;;;;;;4.10;3.80;;;8.10;89.80;;;;;;10452761;28;20202;-79
2023/04/03 07:00:58;;;;;;;4.33;3.93;;;8.10;89.10;;;;;;10421547;28;20220;-79
2023/04/03 07:06:02;;;;;;;4.00;3.80;;;8.20;88.50;;;;;;10413559;28;20235;-79
2023/04/03 07:11:04;;;;;;;4.67;4.27;;;8.30;90.50;;;;;;10453686;28;20221;-78
2023/04/03 07:16:08;;;;;;;3.87;3.57;;;8.40;91.40;;;;;;10438095;28;20198;-78
2023/04/03 07:21:11;;;;;;;3.83;3.57;;;8.60;90.50;;;;;;10456483;28;20707;-78
2023/04/03 07:26:13;;;;;;;4.80;4.10;;;8.60;90.80;;;;;;10421639;28;20204;-78
2023/04/03 07:31:17;;;;;;;5.03;4.53;;;8.70;88.60;;;;;;10448536;28;20302;-78
2023/04/03 07:36:22;;;;;;;4.60;4.20;;;8.70;89.10;;;;;;10425894;28;20732;-78
2023/04/03 07:41:24;;;;;;;4.00;3.60;;;8.80;90.00;;;;;;10448525;28;20260;-77
2023/04/03 07:46:26;;;;;;;4.00;3.70;;;8.90;89.20;;;;;;10442566;28;20230;-77
2023/04/03 07:51:30;;;;;;;4.47;4.07;;;9.10;90.00;;;;;;10420444;28;20213;-78
2023/04/03 07:56:33;;;;;;;4.20;3.90;;;9.20;90.60;;;;;;10432745;28;20202;-78
2023/04/03 08:01:35;;;;;;;4.40;3.23;;;9.40;87.70;;;;;;10445273;28;20245;-78
2023/04/03 08:06:38;;;;;;;4.37;3.00;;;9.50;85.90;;;;;;10428210;28;20287;-78
2023/04/03 08:11:40;;;;;;;3.73;3.43;;;9.50;87.50;;;;;;10424756;28;20249;-78
2023/04/03 08:16:44;;;;;;;4.30;3.30;;;9.60;88.50;;;;;;10458914;28;20681;-77
2023/04/03 08:21:47;;;;;;;3.60;3.13;;;9.60;86.80;;;;;;10461788;28;20227;-78
2023/04/03 08:26:49;;;;;;;3.03;2.80;;;9.70;85.10;;;;;;10436569;28;20205;-78
2023/04/03 08:31:52;;;;;;;3.57;3.27;;;9.60;87.20;;;;;;10456968;28;20583;-78
2023/04/03 08:36:55;;;;;;;3.60;3.30;;;9.60;88.50;;;;;;10436120;28;20224;-78
2023/04/03 08:42:00;;;;;;;5.33;4.00;;;9.60;89.60;;;;;;10435606;28;20640;-78
2023/04/03 08:47:12;;;;;;;3.17;2.87;;;9.60;85.50;;;;;;10461349;28;20201;-78
2023/04/03 08:52:18;;;;;;;3.50;3.20;;;9.60;85.80;;;;;;10449651;28;20306;-78
2023/04/03 08:57:32;;;;;;;3.57;3.27;;;9.60;88.60;;;;;;10435257;28;20335;-78
2023/04/03 09:02:42;;;;;;;5.30;3.27;;;9.70;84.30;;;;;;10473862;22;20263;-80
2023/04/03 09:07:50;;;;;;;3.90;3.37;;;9.70;87.10;;;;;;10473551;28;20222;-80
2023/04/03 09:13:00;;;;;;;3.87;3.17;;;9.70;84.90;;;;;;10484128;28;20279;-80
2023/04/03 09:18:10;;;;;;;3.07;2.70;;;9.70;86.10;;;;;;10473121;28;20220;-80
2023/04/03 09:23:23;;;;;;;6.43;3.23;;;9.80;86.60;;;;;;10469273;28;20926;-81
2023/04/03 09:28:25;;;;;;;3.33;3.13;;;9.90;85.30;;;;;;10469035;28;20189;-81
2023/04/03 09:33:29;;;;;;;4.47;3.50;;;9.90;87.00;;;;;;10469737;28;20217;-81
2023/04/03 09:38:34;;;;;;;3.63;3.30;;;9.90;85.90;;;;;;10469525;28;20225;-82
2023/04/03 09:43:39;;;;;;;5.50;3.20;;;10.00;84.40;;;;;;10469823;28;20219;-81
2023/04/03 09:48:51;;;;;;;3.23;2.80;;;10.00;83.70;;;;;;10478011;28;20203;-82
2023/04/03 09:53:55;;;;;;;4.30;3.40;;;9.90;85.10;;;;;;10472753;28;20663;-79
2023/04/03 09:59:15;;;;;;;3.33;3.03;;;9.90;85.70;;;;;;10464145;28;20223;-80
2023/04/03 10:04:20;;;;;;;3.40;3.20;;;9.90;84.80;;;;;;10466340;28;20721;-81
2023/04/03 10:09:28;;;;;;;4.60;3.20;;;9.80;84.30;;;;;;10444072;28;20201;-80
2023/04/03 10:14:31;;;;;;;5.50;3.83;;;9.80;82.90;;;;;;10462368;28;20224;-80
2023/04/03 10:19:37;;;;;;;3.57;3.27;;;9.80;80.50;;;;;;10461019;28;20223;-80
2023/04/03 10:24:51;;;;;;;3.10;2.80;;;9.70;83.30;;;;;;10462173;28;20588;-82
2023/04/03 10:30:00;;;;;;;6.37;3.93;;;9.80;84.90;;;;;;10462038;28;20615;-80
2023/04/03 10:35:11;;;;;;;3.43;3.10;;;10.00;85.20;;;;;;10433270;28;20206;-81
2023/04/03 10:40:25;;;;;;;3.37;2.90;;;10.10;78.50;;;;;;10420543;28;20225;-81
2023/04/03 10:45:30;;;;;;;3.23;2.83;;;9.90;83.70;;;;;;10464224;28;20288;-81
2023/04/03 10:50:47;;;;;;;3.60;3.17;;;9.90;82.70;;;;;;10472967;28;20272;-81
2023/04/03 10:55:59;;;;;;;6.33;3.33;;;9.90;82.50;;;;;;10467330;28;20196;-81
2023/04/03 11:01:07;;;;;;;4.40;3.33;;;10.00;80.50;;;;;;10470656;28;20227;-81
2023/04/03 11:06:13;;;;;;;4.80;2.90;;;10.00;78.70;;;;;;10474022;28;20193;-79
2023/04/03 11:11:21;;;;;;;3.50;3.20;;;9.80;82.00;;;;;;10479435;28;20753;-81
2023/04/03 11:16:27;;;;;;;4.33;3.13;;;9.70;84.60;;;;;;10461352;28;20195;-82
2023/04/03 11:21:35;;;;;;;3.10;2.33;;;9.90;79.10;;;;;;10461943;28;20220;-81
2023/04/03 11:26:45;;;;;;;4.00;3.10;;;10.10;77.00;;;;;;10466064;28;20201;-82
2023/04/03 11:32:04;;;;;;;3.00;2.80;;;10.00;78.50;;;;;;10464118;28;20212;-82
2023/04/03 11:37:14;;;;;;;3.70;2.90;;;10.10;77.40;;;;;;10466709;28;20636;-81
2023/04/03 11:42:34;;;;;;;3.20;2.90;;;10.10;80.20;;;;;;10453931;28;20248;-80
2023/04/03 11:47:47;;;;;;;3.80;2.93;;;10.10;79.20;;;;;;10462493;28;20649;-80
2023/04/03 11:53:01;;;;;;;3.43;3.23;;;10.20;74.20;;;;;;10461399;28;20225;-81
2023/04/03 11:58:13;;;;;;;2.70;2.50;;;10.10;78.70;;;;;;10474184;28;20304;-81
2023/04/03 12:03:33;;;;;;;3.23;2.80;;;10.10;77.30;;;;;;10466527;28;20606;-81
2023/04/03 12:08:46;;;;;;;3.20;2.90;;;10.20;76.90;;;;;;10458018;28;20734;-81
2023/04/03 12:14:05;;;;;;;3.27;2.97;;;10.20;75.60;;;;;;10464413;28;20248;-81
2023/04/03 12:19:32;;;;;;;3.57;2.90;;;10.20;73.90;;;;;;10444616;28;20282;-81
2023/04/03 12:24:35;;;;;;;3.13;2.83;;;10.20;75.90;;;;;;10468270;28;20221;-81
2023/04/03 12:29:45;;;;;;;5.13;3.23;;;10.20;73.30;;;;;;10455557;28;20199;-81
2023/04/03 12:35:03;;;;;;;3.90;3.07;;;10.20;75.00;;;;;;10438364;28;20221;-81
2023/04/03 12:40:16;;;;;;;2.73;2.47;;;10.20;74.10;;;;;;10456780;28;20405;-81
2023/04/03 12:45:22;;;;;;;4.47;2.90;;;10.20;75.30;;;;;;10440082;28;20312;-80
2023/04/03 12:50:25;;;;;;;2.77;2.57;;;10.20;79.00;;;;;;10437622;28;20300;-81
2023/04/03 12:55:28;;;;;;;3.40;2.90;;;10.30;76.70;;;;;;10448387;28;20673;-81
2023/04/03 13:00:34;;;;;;;4.93;3.43;;;10.40;75.60;;;;;;10465104;28;20221;-81
2023/04/03 13:05:36;;;;;;;3.17;2.97;;;10.50;74.60;;;;;;10462018;28;20190;-81
2023/04/03 13:10:48;;;;;;;4.13;3.40;;;10.60;73.30;;;;;;10465465;28;20210;-81
2023/04/03 13:15:53;;;;;;;5.20;3.20;;;10.80;75.20;;;;;;10468334;28;20284;-81
2023/04/03 13:20:59;;;;;;;3.20;2.90;;;10.90;71.00;;;;;;10470083;28;20222;-82
2023/04/03 13:26:03;;;;;;;3.27;2.97;;;10.90;69.50;;;;;;10450766;28;20194;-82
2023/04/03 13:31:18;;;;;;;3.67;2.80;;;10.90;68.80;;;;;;10466035;28;20217;-81
2023/04/03 13:36:22;;;;;;;3.13;2.93;;;10.80;66.60;;;;;;10463355;28;20198;-80
2023/04/03 13:41:27;;;;;;;5.33;3.50;;;10.70;70.50;;;;;;10460598;28;20226;-80
2023/04/03 13:46:30;;;;;;;4.60;3.30;;;10.70;69.90;;;;;;10461464;28;20233;-80
2023/04/03 13:51:33;;;;;;;2.50;2.40;;;10.60;71.10;;;;;;10463176;28;20304;-83
2023/04/03 13:56:37;;;;;;;3.20;2.90;;;10.70;72.70;;;;;;10467302;28;20194;-82
2023/04/03 14:01:44;;;;;;;3.10;2.90;;;10.80;69.90;;;;;;10472398;28;20699;-82
2023/04/03 14:06:47;;;;;;;3.57;3.37;;;10.90;68.50;;;;;;10478549;28;20194;-82
2023/04/03 14:11:52;;;;;;;3.50;3.13;;;11.00;68.40;;;;;;10462449;28;20584;-82
2023/04/03 14:16:59;;;;;;;4.93;3.80;;;11.00;69.40;;;;;;10462863;28;20654;-81
2023/04/03 14:22:11;;;;;;;3.23;3.03;;;10.90;66.90;;;;;;10463118;28;20815;-81
2023/04/03 14:27:19;;;;;;;3.50;3.20;;;10.90;69.00;;;;;;10454211;28;20200;-81
2023/04/03 14:32:25;;;;;;;3.30;3.10;;;10.80;69.30;;;;;;10469280;28;20277;-82
2023/04/03 14:37:30;;;;;;;3.27;3.00;;;10.70;68.30;;;;;;10462970;28;20267;-81
2023/04/03 14:42:35;;;;;;;3.00;2.80;;;10.40;68.70;;;;;;10460716;28;20695;-82
2023/04/03 14:47:45;;;;;;;4.40;3.37;;;10.40;70.30;;;;;;10460468;28;20229;-82
2023/04/03 14:52:47;;;;;;;4.33;3.33;;;10.60;67.00;;;;;;10462008;28;20265;-82
2023/04/03 14:57:49;;;;;;;3.17;2.97;;;10.70;65.80;;;;;;10461609;28;20646;-81
2023/04/03 15:02:55;;;;;;;3.37;3.17;;;10.70;67.20;;;;;;10444772;28;20259;-82
2023/04/03 15:08:00;;;;;;;3.43;3.13;;;10.60;65.20;;;;;;10464379;28;20259;-83
2023/04/03 15:13:02;;;;;;;3.10;2.80;;;10.60;66.20;;;;;;10461170;28;20249;-82
2023/04/03 15:18:07;;;;;;;4.20;2.70;;;10.50;67.10;;;;;;10443984;28;20261;-83
2023/04/03 15:23:11;;;;;;;7.30;3.57;;;10.50;66.70;;;;;;10456658;28;20267;-80
2023/04/03 15:28:20;;;;;;;3.10;2.90;;;10.40;67.80;;;;;;10463476;28;20256;-80
2023/04/03 15:33:23;;;;;;;3.17;2.93;;;10.40;65.80;;;;;;10469371;28;20267;-80
2023/04/03 15:38:26;;;;;;;3.93;3.07;;;10.40;59.90;;;;;;10461885;28;20209;-80
2023/04/03 15:43:28;;;;;;;3.17;2.90;;;10.20;62.20;;;;;;10461571;28;20219;-83
2023/04/03 15:48:34;;;;;;;4.30;3.70;;;9.90;66.10;;;;;;10465346;28;20269;-81
2023/04/03 15:53:36;;;;;;;3.70;3.40;;;9.80;68.40;;;;;;10475315;28;20214;-81
2023/04/03 15:58:38;;;;;;;6.03;3.03;;;9.70;70.60;;;;;;10471970;28;20220;-82
2023/04/03 16:03:44;;;;;;;3.90;3.50;;;9.70;67.80;;;;;;10463293;28;20236;-82
2023/04/03 16:08:48;;;;;;;3.30;3.10;;;9.70;71.20;;;;;;10463548;28;20199;-82
2023/04/03 16:13:52;;;;;;;5.30;2.77;;;9.70;69.40;;;;;;10455903;28;20223;-82
2023/04/03 16:18:56;;;;;;;3.40;3.10;;;9.90;64.20;;;;;;10460464;28;20204;-82
2023/04/03 16:24:00;;;;;;;3.10;2.80;;;9.90;65.50;;;;;;10464870;28;20220;-82
2023/04/03 16:29:02;;;;;;;4.63;3.00;;;9.80;63.70;;;;;;10460776;28;20224;-81
2023/04/03 16:34:05;;;;;;;3.23;3.03;;;9.60;67.90;;;;;;10462428;28;20220;-80
2023/04/03 16:39:09;;;;;;;4.40;3.47;;;9.60;66.30;;;;;;10465147;28;20330;-80
2023/04/03 16:44:11;;;;;;;4.27;3.30;;;9.60;63.10;;;;;;10464594;28;20217;-82
2023/04/03 16:49:15;;;;;;;3.30;2.93;;;9.50;67.60;;;;;;10467758;28;20203;-80
2023/04/03 16:54:17;;;;;;;3.80;3.50;;;9.50;64.50;;;;;;10469355;28;20283;-80
2023/04/03 16:59:19;;;;;;;3.17;2.97;;;9.60;61.90;;;;;;10467870;28;20227;-80
2023/04/03 17:04:22;;;;;;;3.30;3.00;;;9.50;67.10;;;;;;10473185;28;20717;-79
2023/04/03 17:09:24;;;;;;;3.40;3.10;;;9.60;61.70;;;;;;10471102;28;20258;-80
2023/04/03 17:14:26;;;;;;;3.63;3.33;;;9.50;67.00;;;;;;10465816;28;20238;-79
2023/04/03 17:19:30;;;;;;;2.70;2.50;;;9.60;65.60;;;;;;10448788;28;20553;-79
2023/04/03 17:24:33;;;;;;;4.93;3.17;;;9.70;66.20;;;;;;10465391;28;20237;-79
2023/04/03 17:29:35;;;;;;;3.90;3.60;;;9.70;63.80;;;;;;10466468;28;20188;-81
2023/04/03 17:34:38;;;;;;;4.70;3.50;;;9.60;61.90;;;;;;10467069;28;20595;-79
2023/04/03 17:39:40;;;;;;;4.50;3.53;;;9.50;64.30;;;;;;10464839;28;20222;-81
2023/04/03 17:44:43;;;;;;;5.77;3.33;;;9.30;66.60;;;;;;10464037;28;20220;-81
2023/04/03 17:49:47;;;;;;;3.20;3.00;;;9.30;66.80;;;;;;10455328;28;20250;-79
2023/04/03 17:54:50;;;;;;;4.00;3.60;;;9.20;67.70;;;;;;10473542;28;20683;-82
2023/04/03 17:59:52;;;;;;;4.70;3.80;;;9.20;68.30;;;;;;10457081;28;20301;-80
2023/04/03 18:04:56;;;;;;;3.83;3.40;;;9.20;67.50;;;;;;10464349;28;20230;-81
2023/04/03 18:09:59;;;;;;;3.30;3.10;;;9.10;69.40;;;;;;10461123;28;20729;-81
2023/04/03 18:15:03;;;;;;;5.87;3.43;;;9.10;70.80;;;;;;10463809;28;20266;-81
2023/04/03 18:20:10;;;;;;;4.53;3.70;;;9.10;67.30;;;;;;10462416;28;20209;-79
2023/04/03 18:25:16;;;;;;;5.30;4.00;;;9.10;67.80;;;;;;10463537;28;20212;-79
2023/04/03 18:30:18;;;;;;;5.57;3.90;;;9.10;68.00;;;;;;10429703;28;20199;-81
2023/04/03 18:35:21;;;;;;;3.87;3.57;;;9.10;68.10;;;;;;10458049;28;20275;-81
2023/04/03 18:40:27;;;;;;;6.20;3.27;;;9.00;67.80;;;;;;10455403;28;20223;-83
2023/04/03 18:45:30;;;;;;;5.97;3.77;;;9.00;66.90;;;;;;10435777;28;20298;-81
2023/04/03 18:50:34;;;;;;;3.40;2.90;;;8.90;67.40;;;;;;10458642;28;20306;-79
2023/04/03 18:55:36;;;;;;;3.93;3.53;;;8.80;67.50;;;;;;10459547;28;20252;-79
2023/04/03 19:00:40;;;;;;;3.93;3.57;;;8.70;68.40;;;;;;10452430;28;20280;-82
2023/04/03 19:05:45;;;;;;;4.00;3.67;;;8.60;71.80;;;;;;10449636;28;20191;-81
2023/04/03 19:10:47;;;;;;;4.50;3.10;;;8.60;69.00;;;;;;10455281;28;20226;-80
2023/04/03 19:15:50;;;;;;;4.13;3.83;;;8.50;71.30;;;;;;10457439;28;20202;-80
2023/04/03 19:20:55;;;;;;;4.27;3.97;;;8.40;71.30;;;;;;10460820;28;20303;-81
2023/04/03 19:25:59;;;;;;;4.17;3.77;;;8.40;71.30;;;;;;10463183;28;20222;-81
2023/04/03 19:31:02;;;;;;;3.83;3.53;;;8.40;71.30;;;;;;10461966;28;20610;-81
2023/04/03 19:36:06;;;;;;;6.33;4.50;;;8.40;70.00;;;;;;10466674;28;20206;-81
2023/04/03 19:41:11;;;;;;;4.60;4.20;;;8.40;69.00;;;;;;10461879;28;20240;-81
2023/04/03 19:46:14;;;;;;;4.87;4.43;;;8.40;70.30;;;;;;10460292;28;20210;-81
2023/04/03 19:51:17;;;;;;;3.90;3.60;;;8.40;69.80;;;;;;10451708;28;20294;-81
2023/04/03 19:56:22;;;;;;;3.50;3.20;;;8.40;71.70;;;;;;10460289;28;20300;-80
2023/04/03 20:01:26;;;;;;;4.23;3.87;;;8.30;70.50;;;;;;10457463;28;20254;-80
2023/04/03 20:06:30;;;;;;;3.57;3.10;;;8.30;72.40;;;;;;10441413;28;20283;-80
2023/04/03 20:11:34;;;;;;;3.43;3.13;;;8.30;69.90;;;;;;10459342;28;20211;-80
2023/04/03 20:16:36;;;;;;;6.67;3.33;;;8.20;70.40;;;;;;10451463;28;20223;-80
2023/04/03 20:21:40;;;;;;;3.40;3.10;;;8.10;68.90;;;;;;10442736;28;20240;-81
2023/04/03 20:26:45;;;;;;;3.93;3.50;;;8.00;67.40;;;;;;10472486;28;20224;-80
2023/04/03 20:31:47;;;;;;;3.70;3.23;;;7.90;71.00;;;;;;10458571;28;20616;-80
2023/04/03 20:36:51;;;;;;;4.20;3.80;;;7.80;67.40;;;;;;10459958;28;20229;-80
2023/04/03 20:41:54;;;;;;;4.80;3.50;;;7.70;70.50;;;;;;10460010;28;20303;-79
2023/04/03 20:46:57;;;;;;;3.30;3.10;;;7.70;68.50;;;;;;10455325;28;20192;-79
2023/04/03 20:52:00;;;;;;;3.80;3.40;;;7.60;71.00;;;;;;10456333;28;20225;-80
2023/04/03 20:57:02;;;;;;;4.00;3.60;;;7.50;70.60;;;;;;10455625;28;20194;-79
2023/04/03 21:02:05;;;;;;;4.00;3.70;;;7.40;73.10;;;;;;10480763;22;20706;-79
2023/04/03 21:07:45;;;;;;;4.00;3.70;;;7.40;74.20;;;;;;10458362;28;20207;-80
2023/04/03 21:13:25;;;;;;;4.70;3.80;;;7.40;72.90;;;;;;10458284;28;20711;-80
2023/04/03 21:19:08;;;;;;;3.67;3.10;;;7.30;72.30;;;;;;10462164;28;20249;-78
2023/04/03 21:24:12;;;;;;;5.93;5.37;;;7.20;72.50;;;;;;10440434;28;20232;-78
2023/04/03 21:29:15;;;;;;;4.00;3.70;;;7.20;72.80;;;;;;10436323;28;20204;-79
2023/04/03 21:34:19;;;;;;;3.50;3.20;;;7.10;72.90;;;;;;10424103;28;20208;-79
2023/04/03 21:39:22;;;;;;;3.47;3.17;;;7.20;74.00;;;;;;10448472;28;20199;-78
2023/04/03 21:44:26;;;;;;;3.10;2.80;;;7.10;71.90;;;;;;10458848;28;20218;-79
2023/04/03 21:49:29;;;;;;;3.13;2.83;;;7.10;72.10;;;;;;10426547;28;20298;-77
2023/04/03 21:54:32;;;;;;;5.00;3.30;;;7.00;72.30;;;;;;10419226;28;20294;-77
2023/04/03 21:59:34;;;;;;;3.17;2.97;;;7.00;71.60;;;;;;10440507;28;20205;-77
2023/04/03 22:04:38;;;;;;;2.80;2.60;;;6.90;74.60;;;;;;10442570;28;20233;-77
2023/04/03 22:09:40;;;;;;;3.33;3.03;;;6.80;71.80;;;;;;10453204;28;20292;-77
2023/04/03 22:14:42;;;;;;;5.97;3.27;;;6.70;73.00;;;;;;10432001;28;20218;-77
2023/04/03 22:19:45;;;;;;;3.00;2.80;;;6.70;72.90;;;;;;10415911;28;20194;-77
2023/04/03 22:24:47;;;;;;;3.20;2.90;;;6.60;73.90;;;;;;10405194;28;20298;-77
2023/04/03 22:29:49;;;;;;;4.10;2.90;;;6.60;73.80;;;;;;10418110;28;20644;-78
2023/04/03 22:34:53;;;;;;;3.50;3.10;;;6.60;73.60;;;;;;10419331;28;20243;-77
2023/04/03 22:39:56;;;;;;;3.43;2.87;;;6.60;71.20;;;;;;10415184;28;20218;-77
2023/04/03 22:44:58;;;;;;;3.57;3.03;;;6.50;74.40;;;;;;10409653;28;20315;-78
2023/04/03 22:50:02;;;;;;;3.70;3.37;;;6.50;74.40;;;;;;10417348;28;20195;-78
2023/04/03 22:55:05;;;;;;;4.10;2.83;;;6.50;74.10;;;;;;10416920;28;20234;-78
2023/04/03 23:00:08;;;;;;;3.80;3.10;;;6.40;74.30;;;;;;10414564;28;20229;-78
2023/04/03 23:05:12;;;;;;;3.50;3.20;;;6.40;73.50;;;;;;10429244;28;20223;-78
2023/04/03 23:10:14;;;;;;;3.70;3.30;;;6.40;74.70;;;;;;10441593;28;20613;-77
2023/04/03 23:15:18;;;;;;;3.43;3.20;;;6.30;74.60;;;;;;10438556;28;20222;-77
2023/04/03 23:20:21;;;;;;;4.20;3.20;;;6.30;75.00;;;;;;10436257;28;20213;-77
2023/04/03 23:25:23;;;;;;;4.43;3.50;;;6.30;76.70;;;;;;10440798;28;20298;-77
2023/04/03 23:30:25;;;;;;;3.23;2.93;;;6.20;75.50;;;;;;10438561;28;20681;-78
2023/04/03 23:35:29;;;;;;;3.13;2.93;;;6.20;75.00;;;;;;10440882;28;20222;-78
2023/04/03 23:40:31;;;;;;;3.07;2.87;;;6.20;75.60;;;;;;10420328;28;20214;-81
2023/04/03 23:45:33;;;;;;;6.47;3.80;;;6.10;75.20;;;;;;10421165;28;20854;-77
2023/04/03 23:50:37;;;;;;;2.83;2.63;;;5.90;72.60;;;;;;10440652;28;20284;-79
2023/04/03 23:55:39;;;;;;;3.63;3.33;;;5.70;75.60;;;;;;10435279;28;20257;-79
